Time;durP1;ratioP1;P1;durP2;ratioP2;P2;SDS_P1;SDS_P2;PMS_P1;PMS_P2;Temp;Humidity;BMP_temperature;BMP_pressure;BME280_temperature;BME280_humidity;BME280_pressure;Samples;Min_cycle;Max_cycle;Signal;HPM_P1;HPM_P2
2023/06/06 00:01:09;;;;;;;6.90;4.30;;;15.50;99.90;;;;;;5114642;28;20178;-42
2023/06/06 00:03:36;;;;;;;6.37;4.77;;;15.50;99.90;;;;;;5114300;28;20197;-44
2023/06/06 00:06:02;;;;;;;7.17;4.30;;;15.50;99.90;;;;;;5114415;28;20654;-42
2023/06/06 00:08:28;;;;;;;7.00;4.33;;;15.50;99.90;;;;;;5114314;28;20223;-45
2023/06/06 00:10:54;;;;;;;8.20;4.80;;;15.40;99.90;;;;;;5114273;28;20202;-42
2023/06/06 00:13:21;;;;;;;6.87;4.57;;;15.40;99.90;;;;;;5114236;28;20190;-42
2023/06/06 00:15:47;;;;;;;11.93;5.00;;;15.40;99.90;;;;;;5114213;28;20190;-43
2023/06/06 00:18:13;;;;;;;10.63;4.63;;;15.30;99.90;;;;;;5114090;28;20220;-42
2023/06/06 00:20:39;;;;;;;10.93;4.90;;;15.20;99.90;;;;;;5112871;28;20231;-43
2023/06/06 00:23:07;;;;;;;8.20;4.77;;;15.20;99.90;;;;;;5113994;28;20181;-43
2023/06/06 00:25:32;;;;;;;8.43;5.27;;;15.20;99.90;;;;;;5113510;28;20178;-42
2023/06/06 00:27:58;;;;;;;11.17;4.70;;;15.20;99.90;;;;;;5113985;28;20583;-42
2023/06/06 00:30:24;;;;;;;5.80;4.93;;;15.10;99.90;;;;;;5114220;28;20177;-42
2023/06/06 00:32:49;;;;;;;5.50;4.50;;;15.10;99.90;;;;;;5113957;28;20179;-42
2023/06/06 00:35:15;;;;;;;8.40;5.27;;;15.10;99.90;;;;;;5113824;28;20193;-44
2023/06/06 00:37:40;;;;;;;8.10;5.00;;;15.00;99.90;;;;;;5113799;28;20193;-42
2023/06/06 00:40:09;;;;;;;7.40;4.73;;;15.00;99.90;;;;;;5113745;28;20206;-41
2023/06/06 00:42:34;;;;;;;7.30;5.10;;;15.00;99.90;;;;;;5113761;28;20658;-43
2023/06/06 00:45:00;;;;;;;8.33;5.23;;;14.90;99.90;;;;;;5112509;28;20190;-41
2023/06/06 00:47:26;;;;;;;6.33;5.00;;;14.90;99.90;;;;;;5113786;28;20166;-41
2023/06/06 00:49:52;;;;;;;6.53;4.77;;;14.80;99.90;;;;;;5113766;28;20177;-44
2023/06/06 00:52:19;;;;;;;10.47;5.27;;;14.80;99.90;;;;;;5114024;28;20186;-42
2023/06/06 00:54:45;;;;;;;9.33;5.10;;;14.80;99.90;;;;;;5112374;28;20570;-44
2023/06/06 00:57:12;;;;;;;7.37;5.50;;;14.80;99.90;;;;;;5113974;28;20178;-42
2023/06/06 00:59:40;;;;;;;7.70;5.30;;;14.70;99.90;;;;;;5113804;28;20240;-42
2023/06/06 01:02:09;;;;;;;9.70;5.30;;;14.70;99.90;;;;;;5113612;28;20181;-41
2023/06/06 01:04:40;;;;;;;7.93;5.83;;;14.60;99.90;;;;;;5113453;28;20674;-41
2023/06/06 01:07:07;;;;;;;6.70;4.63;;;14.60;99.90;;;;;;5113839;28;20166;-42
2023/06/06 01:09:35;;;;;;;9.30;5.50;;;14.60;99.90;;;;;;5113629;28;20270;-42
2023/06/06 01:12:35;;;;;;;8.23;5.73;;;14.50;99.90;;;;;;5113830;28;20194;-42
2023/06/06 01:15:11;;;;;;;7.77;5.67;;;14.50;99.90;;;;;;5113729;28;20193;-43
2023/06/06 01:17:41;;;;;;;11.87;6.10;;;14.50;99.90;;;;;;5113470;28;20178;-43
2023/06/06 01:20:07;;;;;;;8.23;5.87;;;14.40;99.90;;;;;;5113421;28;20698;-40
2023/06/06 01:22:35;;;;;;;10.03;5.83;;;14.30;99.90;;;;;;5113398;28;20213;-44
2023/06/06 01:25:03;;;;;;;9.23;5.63;;;14.30;99.90;;;;;;5113363;28;20209;-43
2023/06/06 01:27:33;;;;;;;9.37;5.80;;;14.30;99.90;;;;;;5112057;28;20185;-43
2023/06/06 01:30:01;;;;;;;10.17;6.50;;;14.30;99.90;;;;;;5113917;28;20265;-43
2023/06/06 01:33:07;;;;;;;8.73;6.13;;;14.20;99.90;;;;;;5113348;28;20654;-45
2023/06/06 01:36:04;;;;;;;8.13;5.57;;;14.20;99.90;;;;;;5079057;28;20198;-44
2023/06/06 01:38:43;;;;;;;10.17;5.83;;;14.10;99.90;;;;;;5116466;28;20205;-44
2023/06/06 01:41:12;;;;;;;8.47;5.70;;;14.10;99.90;;;;;;5117497;28;20169;-43
2023/06/06 01:43:40;;;;;;;9.27;5.67;;;14.00;99.90;;;;;;5117334;28;20197;-45
2023/06/06 01:46:08;;;;;;;11.17;6.30;;;14.00;99.90;;;;;;5117054;28;20253;-43
2023/06/06 01:48:35;;;;;;;10.53;6.00;;;13.90;99.90;;;;;;5117784;28;20171;-42
2023/06/06 01:51:01;;;;;;;10.30;5.93;;;13.90;99.90;;;;;;5117650;28;20178;-44
2023/06/06 01:53:27;;;;;;;10.57;5.90;;;13.90;99.90;;;;;;5117387;28;20665;-44
2023/06/06 01:55:53;;;;;;;8.77;6.33;;;13.90;99.90;;;;;;5117102;28;20182;-44
2023/06/06 01:58:19;;;;;;;8.77;6.47;;;13.80;99.90;;;;;;5115905;28;20678;-43
2023/06/06 02:00:45;;;;;;;12.13;5.93;;;13.80;99.90;;;;;;5117940;28;20193;-43
2023/06/06 02:03:11;;;;;;;8.60;6.20;;;13.70;99.90;;;;;;5117250;28;20171;-43
2023/06/06 02:05:37;;;;;;;8.20;5.70;;;13.70;99.90;;;;;;5118048;28;20253;-43
2023/06/06 02:08:03;;;;;;;9.87;6.03;;;13.70;99.90;;;;;;5117188;28;20530;-46
2023/06/06 02:10:29;;;;;;;8.70;6.53;;;13.60;99.90;;;;;;5116646;28;20265;-47
2023/06/06 02:12:54;;;;;;;9.37;6.13;;;13.60;99.90;;;;;;5116952;28;20180;-46
2023/06/06 02:15:21;;;;;;;10.80;6.37;;;13.50;99.90;;;;;;5116615;28;20515;-47
2023/06/06 02:17:46;;;;;;;11.37;6.40;;;13.50;99.90;;;;;;5116681;28;20216;-45
2023/06/06 02:20:12;;;;;;;12.17;6.57;;;13.50;99.90;;;;;;5116446;28;20693;-48
2023/06/06 02:22:38;;;;;;;8.70;6.23;;;13.40;99.90;;;;;;5116393;28;20166;-47
2023/06/06 02:25:04;;;;;;;8.80;7.07;;;13.40;99.90;;;;;;5116556;28;20529;-46
2023/06/06 02:27:34;;;;;;;16.17;6.67;;;13.40;99.90;;;;;;5116696;28;20177;-48
2023/06/06 02:30:07;;;;;;;10.27;5.97;;;13.40;99.90;;;;;;5116295;28;20190;-46
2023/06/06 02:32:33;;;;;;;9.10;6.83;;;13.30;99.90;;;;;;5116596;28;20170;-48
2023/06/06 02:34:59;;;;;;;11.77;7.30;;;13.30;99.90;;;;;;5116170;28;20217;-45
2023/06/06 02:37:26;;;;;;;9.60;6.50;;;13.30;99.90;;;;;;5116294;28;20239;-46
2023/06/06 02:39:53;;;;;;;12.70;6.83;;;13.20;99.90;;;;;;5116635;28;20693;-47
2023/06/06 02:42:18;;;;;;;8.50;6.53;;;13.20;99.90;;;;;;5116376;28;20544;-48
2023/06/06 02:44:44;;;;;;;10.80;6.60;;;13.10;99.90;;;;;;5115964;28;20194;-47
2023/06/06 02:47:10;;;;;;;10.07;6.47;;;13.10;99.90;;;;;;5116119;28;20175;-47
2023/06/06 02:49:35;;;;;;;8.77;6.30;;;13.00;99.90;;;;;;5115573;28;20295;-48
2023/06/06 02:52:01;;;;;;;10.67;6.47;;;13.00;99.90;;;;;;5115894;28;20199;-47
2023/06/06 02:54:27;;;;;;;10.53;7.07;;;13.00;99.90;;;;;;5116094;28;20224;-47
2023/06/06 02:56:52;;;;;;;18.17;7.30;;;12.90;99.90;;;;;;5116113;28;20546;-49
2023/06/06 02:59:18;;;;;;;10.73;6.93;;;13.00;99.90;;;;;;5115655;28;20718;-47
2023/06/06 03:01:48;;;;;;;10.33;7.40;;;12.90;99.90;;;;;;5116075;28;20590;-47
2023/06/06 03:04:15;;;;;;;9.47;6.67;;;12.80;99.90;;;;;;5115542;28;20205;-47
2023/06/06 03:06:41;;;;;;;12.53;7.53;;;12.80;99.90;;;;;;5115587;28;20171;-47
2023/06/06 03:09:09;;;;;;;9.17;6.87;;;12.80;99.90;;;;;;5115872;28;20213;-48
2023/06/06 03:11:35;;;;;;;12.93;6.60;;;12.80;99.90;;;;;;5115627;28;20234;-48
2023/06/06 03:14:01;;;;;;;11.20;7.70;;;12.70;99.90;;;;;;5115822;28;20238;-49
2023/06/06 03:16:28;;;;;;;13.67;7.37;;;12.70;99.90;;;;;;5115629;28;20178;-46
2023/06/06 03:18:57;;;;;;;9.33;6.87;;;12.70;99.90;;;;;;5115492;28;20212;-47
2023/06/06 03:21:23;;;;;;;11.00;6.83;;;12.60;99.90;;;;;;5115301;28;20185;-47
2023/06/06 03:23:48;;;;;;;11.03;7.13;;;12.60;99.90;;;;;;5115426;28;20188;-47
2023/06/06 03:26:15;;;;;;;13.67;7.17;;;12.60;99.90;;;;;;5116015;28;20185;-48
2023/06/06 03:28:41;;;;;;;9.53;7.13;;;12.50;99.90;;;;;;5115482;28;20673;-47
2023/06/06 03:31:07;;;;;;;10.67;6.87;;;12.50;99.90;;;;;;5115486;28;20174;-48
2023/06/06 03:33:33;;;;;;;11.67;7.03;;;12.50;99.90;;;;;;5115656;28;20194;-47
2023/06/06 03:35:59;;;;;;;13.43;7.60;;;12.50;99.90;;;;;;5115355;28;20173;-48
2023/06/06 03:38:25;;;;;;;10.33;6.87;;;12.40;99.90;;;;;;5114810;28;20694;-46
2023/06/06 03:40:50;;;;;;;12.17;8.07;;;12.40;99.90;;;;;;5115278;28;20539;-49
2023/06/06 03:43:16;;;;;;;15.20;8.10;;;12.40;99.90;;;;;;5115740;28;20239;-48
2023/06/06 03:45:41;;;;;;;12.93;7.10;;;12.40;99.90;;;;;;5114926;28;20177;-46
2023/06/06 03:48:09;;;;;;;10.03;7.43;;;12.30;99.90;;;;;;5115323;28;20621;-46
2023/06/06 03:50:35;;;;;;;12.13;6.90;;;12.30;99.90;;;;;;5115036;28;20174;-49
2023/06/06 03:53:02;;;;;;;10.27;6.83;;;12.30;99.90;;;;;;5114881;28;20263;-45
2023/06/06 03:55:28;;;;;;;13.17;7.63;;;12.30;99.90;;;;;;5113490;28;20208;-47
2023/06/06 03:57:54;;;;;;;10.60;7.17;;;12.20;99.90;;;;;;5114936;28;20204;-46
2023/06/06 04:00:20;;;;;;;12.93;7.50;;;12.20;99.90;;;;;;5114020;28;20284;-49
2023/06/06 04:02:46;;;;;;;8.30;7.40;;;12.20;99.90;;;;;;5114773;28;20254;-49
2023/06/06 04:05:12;;;;;;;10.50;7.17;;;12.20;99.90;;;;;;5114844;28;20208;-49
2023/06/06 04:07:38;;;;;;;14.10;7.63;;;12.20;99.90;;;;;;5115275;28;20522;-48
2023/06/06 04:10:04;;;;;;;15.40;8.07;;;12.10;99.90;;;;;;5114734;28;20178;-48
2023/06/06 04:12:30;;;;;;;11.93;7.20;;;12.10;99.90;;;;;;5114713;28;20174;-47
2023/06/06 04:14:55;;;;;;;10.47;7.67;;;12.10;99.90;;;;;;5114514;28;20194;-47
2023/06/06 04:17:24;;;;;;;12.07;8.17;;;12.10;99.90;;;;;;5114728;28;20175;-46
2023/06/06 04:19:50;;;;;;;11.70;7.70;;;12.20;99.90;;;;;;5114185;28;20194;-47
2023/06/06 04:22:15;;;;;;;14.27;8.00;;;12.20;99.90;;;;;;5114517;28;20182;-48
2023/06/06 04:24:41;;;;;;;12.77;7.57;;;12.10;99.90;;;;;;5114341;28;20550;-46
2023/06/06 04:27:07;;;;;;;10.83;7.93;;;12.20;99.90;;;;;;5114194;28;20498;-47
2023/06/06 04:29:33;;;;;;;11.10;8.20;;;12.20;99.90;;;;;;5114128;28;20179;-47
2023/06/06 04:32:04;;;;;;;11.60;7.60;;;12.20;99.90;;;;;;5114008;28;20308;-45
2023/06/06 04:34:30;;;;;;;12.67;7.80;;;12.20;99.90;;;;;;5113979;28;20202;-47
2023/06/06 04:37:05;;;;;;;15.10;8.10;;;12.30;99.90;;;;;;5113993;28;20190;-47
2023/06/06 04:39:32;;;;;;;12.90;7.80;;;12.30;99.90;;;;;;5114645;28;20225;-49
2023/06/06 04:41:59;;;;;;;16.50;8.23;;;12.30;99.90;;;;;;5114291;28;20248;-49
2023/06/06 04:44:28;;;;;;;14.57;7.53;;;12.30;99.90;;;;;;5112634;28;20205;-48
2023/06/06 04:47:00;;;;;;;15.17;8.17;;;12.40;99.90;;;;;;5114137;28;20170;-50
2023/06/06 04:49:30;;;;;;;17.77;8.63;;;12.40;99.90;;;;;;5114111;28;20174;-48
2023/06/06 04:51:59;;;;;;;19.27;9.03;;;12.40;99.90;;;;;;5114167;28;20169;-49
2023/06/06 04:54:25;;;;;;;15.10;7.83;;;12.40;99.90;;;;;;5113947;28;20204;-47
2023/06/06 04:56:51;;;;;;;14.23;7.67;;;12.50;99.90;;;;;;5114278;28;20638;-48
2023/06/06 04:59:21;;;;;;;16.67;8.17;;;12.50;99.90;;;;;;5113918;28;20241;-49
2023/06/06 05:01:47;;;;;;;13.90;8.00;;;12.50;99.90;;;;;;5114254;28;20150;-47
2023/06/06 05:04:12;;;;;;;13.50;8.60;;;12.60;99.90;;;;;;5114255;28;20194;-48
2023/06/06 05:06:39;;;;;;;14.93;8.53;;;12.60;99.90;;;;;;5113985;28;20177;-47
2023/06/06 05:09:06;;;;;;;12.00;8.27;;;12.60;99.90;;;;;;5113632;28;20598;-49
2023/06/06 05:11:32;;;;;;;12.80;8.27;;;12.70;99.90;;;;;;5115810;28;20181;-48
2023/06/06 05:13:57;;;;;;;12.93;8.47;;;12.70;99.90;;;;;;5117718;28;20602;-48
2023/06/06 05:16:23;;;;;;;14.50;8.60;;;12.70;99.90;;;;;;5117770;28;20174;-48
2023/06/06 05:18:48;;;;;;;15.37;8.50;;;12.80;99.90;;;;;;5118185;28;20292;-49
2023/06/06 05:21:15;;;;;;;13.13;9.27;;;12.90;99.90;;;;;;5117997;28;20175;-48
2023/06/06 05:23:40;;;;;;;11.60;8.57;;;12.90;99.90;;;;;;5117528;28;20666;-49
2023/06/06 05:26:06;;;;;;;14.67;9.50;;;12.90;99.90;;;;;;5118235;28;20176;-48
2023/06/06 05:28:32;;;;;;;16.20;10.27;;;13.00;99.90;;;;;;5117630;28;20700;-49
2023/06/06 05:30:57;;;;;;;17.23;10.80;;;13.00;99.90;;;;;;5116296;28;20209;-49
2023/06/06 05:33:25;;;;;;;19.13;12.70;;;13.10;99.90;;;;;;5117469;28;20259;-47
2023/06/06 05:35:51;;;;;;;16.93;11.03;;;13.10;99.90;;;;;;5117354;28;20642;-48
2023/06/06 05:38:18;;;;;;;17.97;12.03;;;13.20;99.90;;;;;;5117225;28;20244;-48
2023/06/06 05:40:43;;;;;;;18.33;12.03;;;13.30;99.90;;;;;;5117376;27;20176;-50
2023/06/06 05:43:09;;;;;;;18.43;11.77;;;13.30;99.90;;;;;;5117262;28;20170;-48
2023/06/06 05:45:35;;;;;;;17.13;11.67;;;13.40;99.90;;;;;;5117435;28;20177;-47
2023/06/06 05:48:01;;;;;;;22.83;13.73;;;13.50;99.90;;;;;;5117236;28;20177;-49
2023/06/06 05:50:27;;;;;;;18.07;12.83;;;13.60;99.90;;;;;;5117258;28;20253;-49
2023/06/06 05:52:53;;;;;;;20.03;13.77;;;13.70;99.90;;;;;;5117118;28;20766;-49
2023/06/06 05:55:29;;;;;;;22.73;11.50;;;13.80;99.90;;;;;;5117340;28;20179;-49
2023/06/06 05:57:55;;;;;;;20.60;10.63;;;13.90;99.90;;;;;;5117298;28;20539;-48
2023/06/06 06:00:22;;;;;;;16.43;8.53;;;13.90;99.90;;;;;;5117104;28;20195;-49
2023/06/06 06:02:51;;;;;;;16.17;9.77;;;14.00;99.90;;;;;;5116841;28;20180;-49
2023/06/06 06:05:17;;;;;;;14.43;9.17;;;14.10;99.90;;;;;;5116782;28;20704;-49
2023/06/06 06:07:44;;;;;;;11.20;7.57;;;14.10;99.90;;;;;;5117409;28;20538;-49
2023/06/06 06:10:10;;;;;;;12.50;8.77;;;14.20;99.90;;;;;;5116922;28;20178;-48
2023/06/06 06:12:36;;;;;;;13.13;9.03;;;14.40;99.90;;;;;;5116995;28;20519;-48
2023/06/06 06:15:02;;;;;;;19.03;9.30;;;14.40;99.90;;;;;;5116628;28;20201;-49
2023/06/06 06:17:27;;;;;;;15.13;8.30;;;14.50;99.90;;;;;;5116536;28;20182;-48
2023/06/06 06:19:53;;;;;;;12.43;8.77;;;14.50;99.90;;;;;;5116477;28;20233;-48
2023/06/06 06:22:18;;;;;;;10.97;8.93;;;14.60;99.90;;;;;;5115852;28;20262;-46
2023/06/06 06:24:44;;;;;;;13.40;9.00;;;14.70;99.90;;;;;;5116271;28;20225;-49
2023/06/06 06:27:10;;;;;;;12.47;8.67;;;14.80;99.90;;;;;;5116370;28;20231;-48
2023/06/06 06:29:36;;;;;;;17.50;8.40;;;14.90;99.90;;;;;;5116404;28;20185;-49
2023/06/06 06:32:02;;;;;;;14.63;8.00;;;15.00;99.90;;;;;;5116299;28;20511;-47
2023/06/06 06:34:27;;;;;;;16.27;9.00;;;15.10;99.90;;;;;;5116221;28;20217;-48
2023/06/06 06:36:53;;;;;;;12.20;8.20;;;15.20;99.90;;;;;;5116270;28;20213;-51
2023/06/06 06:39:19;;;;;;;14.67;8.77;;;15.30;99.90;;;;;;5116043;28;20716;-48
2023/06/06 06:41:47;;;;;;;11.77;8.03;;;15.50;99.90;;;;;;5116408;28;20202;-50
2023/06/06 06:44:13;;;;;;;14.43;8.43;;;15.60;99.90;;;;;;5116031;28;20190;-49
2023/06/06 06:46:39;;;;;;;14.30;8.70;;;15.80;99.90;;;;;;5116053;28;20177;-50
2023/06/06 06:49:15;;;;;;;12.17;8.17;;;15.90;99.90;;;;;;5115955;28;20170;-49
2023/06/06 06:51:41;;;;;;;10.37;7.67;;;16.00;99.90;;;;;;5115935;28;20226;-50
2023/06/06 06:54:11;;;;;;;17.63;8.00;;;16.10;99.90;;;;;;5116023;28;20564;-50
2023/06/06 06:56:37;;;;;;;13.57;8.00;;;16.20;99.90;;;;;;5115815;28;20653;-49
2023/06/06 06:59:05;;;;;;;13.57;8.30;;;16.40;99.90;;;;;;5115908;28;20209;-48
2023/06/06 07:01:32;;;;;;;15.60;8.63;;;16.40;99.90;;;;;;5114437;28;20254;-49
2023/06/06 07:03:58;;;;;;;12.07;7.53;;;16.40;99.90;;;;;;5114302;28;20198;-51
2023/06/06 07:06:23;;;;;;;18.23;8.40;;;16.40;99.90;;;;;;5115820;28;20224;-50
2023/06/06 07:08:51;;;;;;;13.10;8.40;;;16.50;99.90;;;;;;5115740;28;20244;-50
2023/06/06 07:11:17;;;;;;;12.27;7.97;;;16.60;99.90;;;;;;5115456;28;20235;-50
2023/06/06 07:13:42;;;;;;;13.33;8.27;;;16.70;99.90;;;;;;5115511;28;20206;-50
2023/06/06 07:16:09;;;;;;;12.60;8.20;;;16.70;99.90;;;;;;5115708;28;20550;-50
2023/06/06 07:18:34;;;;;;;11.30;8.13;;;16.90;99.90;;;;;;5115536;28;20595;-47
2023/06/06 07:21:00;;;;;;;12.53;8.53;;;17.00;99.90;;;;;;5115493;28;20174;-50
2023/06/06 07:23:26;;;;;;;11.30;8.17;;;17.10;99.90;;;;;;5115210;28;20572;-49
2023/06/06 07:25:52;;;;;;;13.87;7.93;;;17.20;99.90;;;;;;5115227;28;20623;-50
2023/06/06 07:28:18;;;;;;;10.77;8.00;;;17.20;99.90;;;;;;5115415;28;20270;-50
2023/06/06 07:30:44;;;;;;;12.00;8.00;;;17.20;99.90;;;;;;5115362;28;20227;-50
2023/06/06 07:33:10;;;;;;;10.57;8.20;;;17.30;99.90;;;;;;5115045;28;20193;-50
2023/06/06 07:35:36;;;;;;;13.30;8.43;;;17.50;99.90;;;;;;5114956;28;20638;-50
2023/06/06 07:38:02;;;;;;;12.37;8.33;;;17.60;99.90;;;;;;5114876;28;20198;-49
2023/06/06 07:40:28;;;;;;;17.03;9.07;;;17.70;99.90;;;;;;5114931;28;20298;-50
2023/06/06 07:42:54;;;;;;;12.50;9.13;;;17.70;99.90;;;;;;5115097;28;20205;-49
2023/06/06 07:45:21;;;;;;;15.40;8.83;;;17.70;99.90;;;;;;5114908;27;20181;-49
2023/06/06 07:47:46;;;;;;;12.93;8.77;;;17.80;99.90;;;;;;5114817;28;20537;-50
2023/06/06 07:50:13;;;;;;;11.77;9.00;;;17.90;99.90;;;;;;5114714;28;20285;-49
2023/06/06 07:52:43;;;;;;;16.93;8.47;;;18.00;99.90;;;;;;5114929;28;20181;-50
2023/06/06 07:55:09;;;;;;;13.77;8.73;;;18.00;99.90;;;;;;5115091;28;20202;-50
2023/06/06 07:57:35;;;;;;;14.13;9.03;;;18.10;99.90;;;;;;5114627;28;20176;-50
2023/06/06 08:00:10;;;;;;;12.13;8.20;;;18.20;99.90;;;;;;5114445;28;20286;-50
2023/06/06 08:02:37;;;;;;;12.33;8.37;;;18.30;99.90;;;;;;5114777;28;20193;-51
2023/06/06 08:05:03;;;;;;;15.30;8.43;;;18.40;99.90;;;;;;5114613;28;20201;-50
2023/06/06 08:07:29;;;;;;;15.57;9.07;;;18.20;99.90;;;;;;5114645;28;20191;-50
2023/06/06 08:09:55;;;;;;;16.40;9.13;;;18.30;99.90;;;;;;5114675;28;20174;-51
2023/06/06 08:12:20;;;;;;;11.40;8.27;;;18.30;99.90;;;;;;5114354;28;20174;-50
2023/06/06 08:14:46;;;;;;;12.63;8.07;;;18.40;99.90;;;;;;5114253;28;20206;-51
2023/06/06 08:17:12;;;;;;;11.60;7.60;;;18.50;99.90;;;;;;5114247;28;20185;-50
2023/06/06 08:19:38;;;;;;;9.90;8.30;;;18.60;99.90;;;;;;5114168;28;20229;-50
2023/06/06 08:22:04;;;;;;;12.50;8.57;;;18.80;99.90;;;;;;5114731;28;20548;-50
2023/06/06 08:24:30;;;;;;;11.53;7.63;;;19.00;99.90;;;;;;5114650;28;20649;-48
2023/06/06 08:26:57;;;;;;;12.80;8.10;;;19.00;99.90;;;;;;5114483;28;20245;-50
2023/06/06 08:29:23;;;;;;;15.57;8.33;;;19.20;99.90;;;;;;5114379;28;20263;-51
2023/06/06 08:31:49;;;;;;;13.57;8.37;;;19.30;99.90;;;;;;5114063;28;20179;-49
2023/06/06 08:34:15;;;;;;;13.73;8.10;;;19.40;99.90;;;;;;5113976;28;20262;-51
2023/06/06 08:36:41;;;;;;;11.90;8.43;;;19.40;99.90;;;;;;5113718;28;20208;-50
2023/06/06 08:39:06;;;;;;;15.43;7.97;;;19.40;99.90;;;;;;5114158;28;20194;-50
2023/06/06 08:41:35;;;;;;;12.27;7.80;;;19.50;99.90;;;;;;5114567;28;20257;-51
2023/06/06 08:44:04;;;;;;;10.57;7.20;;;19.40;99.90;;;;;;5113939;28;20259;-51
2023/06/06 08:46:34;;;;;;;10.80;8.03;;;19.30;99.90;;;;;;5114452;28;20206;-51
2023/06/06 08:49:07;;;;;;;15.57;8.30;;;19.30;99.90;;;;;;5113075;28;20551;-51
2023/06/06 08:51:33;;;;;;;13.60;8.30;;;19.40;99.90;;;;;;5114253;28;20159;-50
2023/06/06 08:54:02;;;;;;;11.10;8.03;;;19.40;99.90;;;;;;5113801;28;20190;-49
2023/06/06 08:56:28;;;;;;;9.83;7.63;;;19.60;99.90;;;;;;5113694;28;20175;-50
2023/06/06 08:58:54;;;;;;;14.83;8.33;;;19.70;99.90;;;;;;5113904;28;20209;-50
2023/06/06 09:01:21;;;;;;;12.20;7.20;;;19.80;99.90;;;;;;5113981;28;20181;-50
2023/06/06 09:03:48;;;;;;;12.37;7.43;;;19.90;99.90;;;;;;5113757;28;20670;-50
2023/06/06 09:06:17;;;;;;;11.13;7.87;;;20.10;99.90;;;;;;5113931;28;20174;-50
2023/06/06 09:08:44;;;;;;;8.47;7.20;;;20.20;99.90;;;;;;5113647;28;20609;-50
2023/06/06 09:11:11;;;;;;;10.87;7.90;;;20.20;99.90;;;;;;5113534;28;20189;-49
2023/06/06 09:13:41;;;;;;;13.00;8.30;;;20.40;99.90;;;;;;5113797;28;20195;-50
2023/06/06 09:16:07;;;;;;;10.67;8.20;;;20.50;99.90;;;;;;5113828;28;20170;-50
2023/06/06 09:18:35;;;;;;;13.67;7.63;;;20.60;99.90;;;;;;5113707;28;20218;-50
2023/06/06 09:21:01;;;;;;;11.93;7.80;;;20.60;99.90;;;;;;5113471;28;20210;-50
2023/06/06 09:23:30;;;;;;;11.57;7.63;;;20.70;99.90;;;;;;5113419;28;20221;-50
2023/06/06 09:25:56;;;;;;;12.93;7.43;;;20.80;99.90;;;;;;5113427;28;20219;-50
2023/06/06 09:28:36;;;;;;;8.93;7.87;;;20.90;99.90;;;;;;5113408;28;20174;-50
2023/06/06 09:31:20;;;;;;;12.10;7.97;;;20.80;99.90;;;;;;5113444;28;20170;-49
2023/06/06 09:33:48;;;;;;;11.33;7.60;;;20.80;99.90;;;;;;5113557;28;20190;-51
2023/06/06 09:36:13;;;;;;;10.60;8.13;;;20.90;99.90;;;;;;5113363;28;20193;-50
2023/06/06 09:38:39;;;;;;;11.57;7.67;;;20.80;99.90;;;;;;5113107;28;20686;-50
2023/06/06 09:41:05;;;;;;;10.13;7.47;;;20.80;99.90;;;;;;5114414;28;20228;-50
2023/06/06 09:43:34;;;;;;;10.93;7.97;;;21.00;99.90;;;;;;5113590;28;20194;-51
2023/06/06 09:46:00;;;;;;;10.73;7.20;;;21.00;99.90;;;;;;5113304;28;20209;-51
2023/06/06 09:48:28;;;;;;;14.83;7.93;;;21.00;99.90;;;;;;5113336;28;20253;-50
2023/06/06 09:50:54;;;;;;;11.90;7.73;;;20.90;99.90;;;;;;5113495;28;20198;-51
2023/06/06 09:53:25;;;;;;;11.37;7.43;;;21.00;99.90;;;;;;5113402;28;20198;-51
2023/06/06 09:55:54;;;;;;;10.87;7.33;;;21.10;99.90;;;;;;5113424;28;20179;-49
2023/06/06 09:58:21;;;;;;;14.00;7.83;;;21.20;99.90;;;;;;5113177;28;20212;-51
2023/06/06 10:00:48;;;;;;;10.47;7.93;;;21.20;99.90;;;;;;5117156;28;20174;-50
2023/06/06 10:03:22;;;;;;;9.53;7.23;;;21.20;99.90;;;;;;5116739;28;20697;-50
2023/06/06 10:05:51;;;;;;;13.97;7.40;;;21.20;99.90;;;;;;5117127;28;20243;-51
2023/06/06 10:08:19;;;;;;;8.97;7.13;;;21.20;99.90;;;;;;5117281;28;20170;-50
2023/06/06 10:10:46;;;;;;;11.00;7.23;;;21.30;99.90;;;;;;5116677;28;20253;-50
2023/06/06 10:13:20;;;;;;;14.77;7.77;;;21.50;99.90;;;;;;5116861;28;20544;-50
2023/06/06 10:15:46;;;;;;;13.10;7.53;;;21.70;99.90;;;;;;5116563;28;20549;-50
2023/06/06 10:18:13;;;;;;;7.37;6.63;;;21.70;99.90;;;;;;5116869;28;20170;-50
2023/06/06 10:20:39;;;;;;;13.47;7.73;;;21.90;99.90;;;;;;5116680;28;20220;-51
2023/06/06 10:23:05;;;;;;;13.17;7.40;;;22.00;99.90;;;;;;5116674;28;20529;-51
2023/06/06 10:25:32;;;;;;;13.33;7.70;;;22.00;99.90;;;;;;5116384;28;20170;-51
2023/06/06 10:28:28;;;;;;;14.53;7.00;;;22.00;99.90;;;;;;5116366;28;20642;-50
2023/06/06 10:31:19;;;;;;;9.70;6.67;;;22.00;99.90;;;;;;5116263;28;20653;-51
2023/06/06 10:33:53;;;;;;;9.60;6.70;;;22.30;99.90;;;;;;5116456;28;20194;-50
2023/06/06 10:36:19;;;;;;;9.33;6.63;;;22.40;99.90;;;;;;5116540;28;20166;-50
2023/06/06 10:39:28;;;;;;;8.53;6.47;;;22.50;99.90;;;;;;5116032;28;20551;-51
2023/06/06 10:41:57;;;;;;;10.03;6.80;;;22.50;99.90;;;;;;5116156;28;20618;-51
2023/06/06 10:44:35;;;;;;;17.43;6.67;;;22.60;99.90;;;;;;5116002;28;20235;-51
2023/06/06 10:47:32;;;;;;;9.77;5.63;;;22.70;99.90;;;;;;5115962;28;20220;-50
2023/06/06 10:52:55;;;;;;;10.40;6.07;;;22.90;99.90;;;;;;5116171;28;20181;-50
2023/06/06 10:55:24;;;;;;;8.67;5.27;;;23.00;99.90;;;;;;5116110;28;20235;-51
2023/06/06 10:57:54;;;;;;;9.67;5.40;;;23.00;99.90;;;;;;5115827;28;20190;-52
2023/06/06 11:00:25;;;;;;;10.20;5.40;;;23.20;99.90;;;;;;5115905;28;20202;-50
2023/06/06 11:02:52;;;;;;;9.20;5.50;;;23.30;99.90;;;;;;5115642;28;20646;-50
2023/06/06 11:05:21;;;;;;;7.73;5.40;;;23.20;99.90;;;;;;5115973;28;20190;-48
2023/06/06 11:07:49;;;;;;;13.30;5.47;;;23.30;99.90;;;;;;5116237;28;20172;-49
2023/06/06 11:10:20;;;;;;;9.83;5.80;;;23.40;99.90;;;;;;5115530;28;20182;-50
2023/06/06 11:12:49;;;;;;;12.50;4.63;;;23.40;99.90;;;;;;5116038;28;20241;-50
2023/06/06 11:15:27;;;;;;;8.00;5.60;;;23.50;99.90;;;;;;5115662;28;20206;-50
2023/06/06 11:18:01;;;;;;;5.77;4.20;;;23.50;99.90;;;;;;5115717;28;20239;-50
2023/06/06 11:20:27;;;;;;;8.60;4.63;;;23.60;99.90;;;;;;5115234;28;20247;-50
2023/06/06 11:23:05;;;;;;;9.13;5.60;;;23.80;99.90;;;;;;5115195;28;20170;-51
2023/06/06 11:25:38;;;;;;;6.00;4.30;;;23.90;99.90;;;;;;5115853;28;20562;-50
2023/06/06 11:28:05;;;;;;;5.47;4.47;;;23.90;99.90;;;;;;5115440;28;20174;-51
2023/06/06 11:30:34;;;;;;;6.72;4.00;;;23.90;99.90;;;;;;5115038;28;20202;-50
2023/06/06 11:33:01;;;;;;;9.93;4.38;;;24.00;99.90;;;;;;5115280;28;20170;-50
2023/06/06 11:35:32;;;;;;;9.52;4.30;;;24.20;99.90;;;;;;5114979;28;20646;-52
2023/06/06 11:37:58;;;;;;;6.18;3.58;;;24.20;99.90;;;;;;5114947;28;20684;-50
2023/06/06 11:40:27;;;;;;;8.98;3.88;;;24.20;99.90;;;;;;5115093;28;20198;-50
2023/06/06 11:42:52;;;;;;;5.43;3.13;;;24.20;99.90;;;;;;5115148;28;20182;-49
2023/06/06 11:45:19;;;;;;;8.52;4.00;;;24.20;99.90;;;;;;5113578;28;20227;-49
2023/06/06 11:47:46;;;;;;;8.02;4.40;;;24.30;99.90;;;;;;5115029;28;20267;-51
2023/06/06 11:50:12;;;;;;;7.55;3.35;;;24.40;99.90;;;;;;5114746;28;20214;-50
2023/06/06 11:52:49;;;;;;;9.48;3.72;;;24.40;99.90;;;;;;5115228;28;20185;-49
2023/06/06 11:55:15;;;;;;;7.22;4.15;;;24.50;99.90;;;;;;5114821;28;20227;-50
2023/06/06 11:57:41;;;;;;;14.82;4.28;;;24.70;99.90;;;;;;5115407;28;20178;-50
2023/06/06 12:00:14;;;;;;;5.35;3.30;;;24.80;99.90;;;;;;5115020;28;20208;-51
2023/06/06 12:02:40;;;;;;;4.78;3.30;;;24.90;99.90;;;;;;5114543;28;20208;-51
2023/06/06 12:05:17;;;;;;;9.07;3.63;;;25.00;99.90;;;;;;5114652;28;20186;-50
2023/06/06 12:07:43;;;;;;;7.68;3.70;;;24.90;99.90;;;;;;5114713;28;20158;-50
2023/06/06 12:10:09;;;;;;;5.13;3.38;;;24.90;99.90;;;;;;5114630;28;20225;-51
2023/06/06 12:12:43;;;;;;;8.25;3.80;;;25.00;99.90;;;;;;5114278;28;20178;-48
2023/06/06 12:15:09;;;;;;;9.65;3.78;;;25.10;99.90;;;;;;5114317;28;20200;-51
2023/06/06 12:17:35;;;;;;;6.72;3.20;;;25.10;99.90;;;;;;5114272;28;20174;-50
2023/06/06 12:20:00;;;;;;;6.40;3.65;;;25.20;99.90;;;;;;5114464;28;20261;-50
2023/06/06 12:22:30;;;;;;;5.00;3.33;;;25.30;99.90;;;;;;5113748;28;20682;-51
2023/06/06 12:24:56;;;;;;;6.88;3.65;;;25.30;99.90;;;;;;5114420;28;20193;-51
2023/06/06 12:27:26;;;;;;;3.58;3.17;;;25.30;99.90;;;;;;5114131;28;20345;-50
2023/06/06 12:29:54;;;;;;;5.18;3.40;;;25.20;99.90;;;;;;5113993;28;20190;-50
2023/06/06 12:32:26;;;;;;;5.80;3.50;;;25.30;99.90;;;;;;5112697;28;20233;-49
2023/06/06 12:35:02;;;;;;;6.13;3.80;;;25.40;99.90;;;;;;5114238;28;20206;-50
2023/06/06 12:37:45;;;;;;;6.20;3.40;;;25.50;99.90;;;;;;5113950;28;20189;-50
2023/06/06 12:40:27;;;;;;;6.38;3.28;;;25.50;99.90;;;;;;5114080;28;20213;-50
2023/06/06 12:42:58;;;;;;;5.93;3.55;;;25.70;99.90;;;;;;5113800;28;20210;-50
2023/06/06 12:45:26;;;;;;;6.47;3.40;;;25.80;99.90;;;;;;5114370;28;20205;-50
2023/06/06 12:47:53;;;;;;;34.33;24.30;;;25.90;99.90;;;;;;5114066;28;20182;-50